Ferrum, Virginia
Current Conditions -  °F | °C
As of 12:55 PM on Wednesday 28 Jan 2015 (Local Time) from KMTV Reporting Station
Clear Clear  
Wind Chill: 38°   Ceiling: Unl
Heat Index: 42°   Visibility: 10mi
Dew Point: 14°   Wind: 7mph
Humidity: 32%   Direction: 60°ENE
Pressure: 30.24"   Gusts: NA
Location:  36.92°N, 80.01°W
Report Text: KMTV 281755Z AUTO 06006KT 10SM CLR 06/M10 A3024 RMK AO2 T00571100 10057 21038
Loading
Personal Weather Stations






























Interactive Weather Map New forecast layout! Learn more

10-Day Weather Forecast

Advertisements
Track Severe Weather on mobile